sensor_id;sensor_type;location;lat;lon;timestamp;temperature;humidity
9730;DHT22;4904;49.152;11.004;2024-03-29T00:00:56;6.00;99.90
9730;DHT22;4904;49.152;11.004;2024-03-29T00:03:22;6.10;99.90
9730;DHT22;4904;49.152;11.004;2024-03-29T00:05:48;6.20;99.90
9730;DHT22;4904;49.152;11.004;2024-03-29T00:08:14;6.10;99.90
9730;DHT22;4904;49.152;11.004;2024-03-29T00:10:40;6.20;99.90
9730;DHT22;4904;49.152;11.004;2024-03-29T00:13:06;6.10;99.90
9730;DHT22;4904;49.152;11.004;2024-03-29T00:15:32;6.00;99.90
9730;DHT22;4904;49.152;11.004;2024-03-29T00:17:59;5.90;99.90
9730;DHT22;4904;49.152;11.004;2024-03-29T00:20:25;5.90;99.90
9730;DHT22;4904;49.152;11.004;2024-03-29T00:22:51;5.80;99.90
9730;DHT22;4904;49.152;11.004;2024-03-29T00:25:17;5.70;99.90
9730;DHT22;4904;49.152;11.004;2024-03-29T00:27:43;5.60;99.90
9730;DHT22;4904;49.152;11.004;2024-03-29T00:30:10;5.60;99.90
9730;DHT22;4904;49.152;11.004;2024-03-29T00:32:36;5.60;99.90
9730;DHT22;4904;49.152;11.004;2024-03-29T00:35:04;5.70;99.90
9730;DHT22;4904;49.152;11.004;2024-03-29T00:37:30;5.80;99.90
9730;DHT22;4904;49.152;11.004;2024-03-29T00:39:56;5.80;99.90
9730;DHT22;4904;49.152;11.004;2024-03-29T00:42:21;5.80;99.90
9730;DHT22;4904;49.152;11.004;2024-03-29T00:44:47;5.80;99.90
9730;DHT22;4904;49.152;11.004;2024-03-29T00:47:13;5.90;99.90
9730;DHT22;4904;49.152;11.004;2024-03-29T00:49:39;5.90;99.90
9730;DHT22;4904;49.152;11.004;2024-03-29T00:52:07;6.00;99.90
9730;DHT22;4904;49.152;11.004;2024-03-29T00:54:33;6.00;99.90
9730;DHT22;4904;49.152;11.004;2024-03-29T00:56:59;6.00;99.90
9730;DHT22;4904;49.152;11.004;2024-03-29T00:59:24;6.10;99.90
9730;DHT22;4904;49.152;11.004;2024-03-29T01:01:51;6.20;99.90
9730;DHT22;4904;49.152;11.004;2024-03-29T01:04:17;6.20;99.90
9730;DHT22;4904;49.152;11.004;2024-03-29T01:06:43;6.30;99.90
9730;DHT22;4904;49.152;11.004;2024-03-29T01:09:11;6.30;99.90
9730;DHT22;4904;49.152;11.004;2024-03-29T01:11:37;6.30;99.90
9730;DHT22;4904;49.152;11.004;2024-03-29T01:14:03;6.40;99.90
9730;DHT22;4904;49.152;11.004;2024-03-29T01:16:29;6.40;99.90
9730;DHT22;4904;49.152;11.004;2024-03-29T01:18:55;6.40;99.90
9730;DHT22;4904;49.152;11.004;2024-03-29T01:21:21;6.40;99.90
9730;DHT22;4904;49.152;11.004;2024-03-29T01:23:47;6.50;99.90
9730;DHT22;4904;49.152;11.004;2024-03-29T01:26:14;6.50;99.90
9730;DHT22;4904;49.152;11.004;2024-03-29T01:28:40;6.50;99.90
9730;DHT22;4904;49.152;11.004;2024-03-29T01:31:06;6.60;99.90
9730;DHT22;4904;49.152;11.004;2024-03-29T01:33:32;6.70;99.90
9730;DHT22;4904;49.152;11.004;2024-03-29T01:35:58;6.70;99.90
9730;DHT22;4904;49.152;11.004;2024-03-29T01:38:24;6.70;99.90
9730;DHT22;4904;49.152;11.004;2024-03-29T01:40:50;6.80;99.90
9730;DHT22;4904;49.152;11.004;2024-03-29T01:43:17;6.80;99.90
9730;DHT22;4904;49.152;11.004;2024-03-29T01:45:47;6.80;99.90
9730;DHT22;4904;49.152;11.004;2024-03-29T01:48:15;6.80;99.90
9730;DHT22;4904;49.152;11.004;2024-03-29T01:50:43;6.90;99.90
9730;DHT22;4904;49.152;11.004;2024-03-29T01:53:11;6.80;99.90
9730;DHT22;4904;49.152;11.004;2024-03-29T01:55:38;6.90;99.90
9730;DHT22;4904;49.152;11.004;2024-03-29T01:58:05;6.90;99.90
9730;DHT22;4904;49.152;11.004;2024-03-29T02:00:36;6.90;99.90
9730;DHT22;4904;49.152;11.004;2024-03-29T02:03:05;6.90;99.90
9730;DHT22;4904;49.152;11.004;2024-03-29T02:05:35;6.90;99.90
9730;DHT22;4904;49.152;11.004;2024-03-29T02:08:04;6.90;99.90
9730;DHT22;4904;49.152;11.004;2024-03-29T02:10:31;6.90;99.90
9730;DHT22;4904;49.152;11.004;2024-03-29T02:12:58;7.00;99.90
9730;DHT22;4904;49.152;11.004;2024-03-29T02:15:25;6.90;99.90
9730;DHT22;4904;49.152;11.004;2024-03-29T02:17:53;6.90;99.90
9730;DHT22;4904;49.152;11.004;2024-03-29T02:20:20;6.80;99.90
9730;DHT22;4904;49.152;11.004;2024-03-29T02:22:51;6.90;99.90
9730;DHT22;4904;49.152;11.004;2024-03-29T02:25:21;6.80;99.90
9730;DHT22;4904;49.152;11.004;2024-03-29T02:27:48;6.80;99.90
9730;DHT22;4904;49.152;11.004;2024-03-29T02:30:16;6.80;99.90
9730;DHT22;4904;49.152;11.004;2024-03-29T02:32:43;6.90;99.90
9730;DHT22;4904;49.152;11.004;2024-03-29T02:35:10;6.90;99.90
9730;DHT22;4904;49.152;11.004;2024-03-29T02:37:37;6.90;99.90
9730;DHT22;4904;49.152;11.004;2024-03-29T02:40:05;6.90;99.90
9730;DHT22;4904;49.152;11.004;2024-03-29T02:42:35;7.00;99.90
9730;DHT22;4904;49.152;11.004;2024-03-29T02:45:03;7.00;99.90
9730;DHT22;4904;49.152;11.004;2024-03-29T02:47:30;6.90;99.90
9730;DHT22;4904;49.152;11.004;2024-03-29T02:49:56;6.90;99.90
9730;DHT22;4904;49.152;11.004;2024-03-29T02:52:22;6.90;99.90
9730;DHT22;4904;49.152;11.004;2024-03-29T02:54:49;6.90;99.90
9730;DHT22;4904;49.152;11.004;2024-03-29T02:57:16;7.00;99.90
9730;DHT22;4904;49.152;11.004;2024-03-29T02:59:43;7.00;99.90
9730;DHT22;4904;49.152;11.004;2024-03-29T03:02:10;7.00;99.90
9730;DHT22;4904;49.152;11.004;2024-03-29T03:04:36;7.00;99.90
9730;DHT22;4904;49.152;11.004;2024-03-29T03:07:03;6.90;99.90
9730;DHT22;4904;49.152;11.004;2024-03-29T03:09:44;7.00;99.90
9730;DHT22;4904;49.152;11.004;2024-03-29T03:12:29;7.00;99.90
9730;DHT22;4904;49.152;11.004;2024-03-29T03:14:58;7.10;99.90
9730;DHT22;4904;49.152;11.004;2024-03-29T03:17:25;7.10;99.90
9730;DHT22;4904;49.152;11.004;2024-03-29T03:19:52;7.10;99.90
9730;DHT22;4904;49.152;11.004;2024-03-29T03:22:21;7.10;99.90
9730;DHT22;4904;49.152;11.004;2024-03-29T03:24:47;7.00;99.90
9730;DHT22;4904;49.152;11.004;2024-03-29T03:27:13;7.10;99.90
9730;DHT22;4904;49.152;11.004;2024-03-29T03:29:40;7.10;99.90
9730;DHT22;4904;49.152;11.004;2024-03-29T03:32:07;7.10;99.90
9730;DHT22;4904;49.152;11.004;2024-03-29T03:34:34;7.00;99.90
9730;DHT22;4904;49.152;11.004;2024-03-29T03:37:00;7.10;99.90
9730;DHT22;4904;49.152;11.004;2024-03-29T03:39:27;7.10;99.90
9730;DHT22;4904;49.152;11.004;2024-03-29T03:41:53;7.10;99.90
9730;DHT22;4904;49.152;11.004;2024-03-29T03:44:19;7.10;99.90
9730;DHT22;4904;49.152;11.004;2024-03-29T03:46:47;7.20;99.90
9730;DHT22;4904;49.152;11.004;2024-03-29T03:49:15;7.20;99.90
9730;DHT22;4904;49.152;11.004;2024-03-29T03:51:41;7.20;99.90
9730;DHT22;4904;49.152;11.004;2024-03-29T03:54:08;7.30;99.90
9730;DHT22;4904;49.152;11.004;2024-03-29T03:56:34;7.30;99.90
9730;DHT22;4904;49.152;11.004;2024-03-29T03:59:01;7.30;99.90
9730;DHT22;4904;49.152;11.004;2024-03-29T04:01:26;7.30;99.90
9730;DHT22;4904;49.152;11.004;2024-03-29T04:03:53;7.40;99.90
9730;DHT22;4904;49.152;11.004;2024-03-29T04:06:21;7.40;99.90
9730;DHT22;4904;49.152;11.004;2024-03-29T04:08:48;7.40;99.90
9730;DHT22;4904;49.152;11.004;2024-03-29T04:11:13;7.40;99.90
9730;DHT22;4904;49.152;11.004;2024-03-29T04:13:42;7.40;99.90
9730;DHT22;4904;49.152;11.004;2024-03-29T04:16:08;7.40;99.90
9730;DHT22;4904;49.152;11.004;2024-03-29T04:18:35;7.40;99.90
9730;DHT22;4904;49.152;11.004;2024-03-29T04:21:01;7.40;99.90
9730;DHT22;4904;49.152;11.004;2024-03-29T04:23:30;7.40;99.90
9730;DHT22;4904;49.152;11.004;2024-03-29T04:25:57;7.40;99.90
9730;DHT22;4904;49.152;11.004;2024-03-29T04:28:25;7.50;99.90
9730;DHT22;4904;49.152;11.004;2024-03-29T04:30:52;7.50;99.90
9730;DHT22;4904;49.152;11.004;2024-03-29T04:33:19;7.40;99.90
9730;DHT22;4904;49.152;11.004;2024-03-29T04:35:56;7.40;99.90
9730;DHT22;4904;49.152;11.004;2024-03-29T04:38:23;7.30;99.90
9730;DHT22;4904;49.152;11.004;2024-03-29T04:40:53;7.30;99.90
9730;DHT22;4904;49.152;11.004;2024-03-29T04:43:22;7.80;99.90
9730;DHT22;4904;49.152;11.004;2024-03-29T04:45:49;7.40;99.90
9730;DHT22;4904;49.152;11.004;2024-03-29T04:48:17;7.40;99.90
9730;DHT22;4904;49.152;11.004;2024-03-29T04:50:44;7.40;99.90
9730;DHT22;4904;49.152;11.004;2024-03-29T04:53:10;7.40;99.90
9730;DHT22;4904;49.152;11.004;2024-03-29T04:55:37;7.50;99.90
9730;DHT22;4904;49.152;11.004;2024-03-29T04:58:06;7.50;99.90
9730;DHT22;4904;49.152;11.004;2024-03-29T05:00:33;7.50;99.90
9730;DHT22;4904;49.152;11.004;2024-03-29T05:03:00;7.60;99.90
9730;DHT22;4904;49.152;11.004;2024-03-29T05:05:26;7.60;99.90
9730;DHT22;4904;49.152;11.004;2024-03-29T05:07:53;7.60;99.90
9730;DHT22;4904;49.152;11.004;2024-03-29T05:10:20;7.60;99.90
9730;DHT22;4904;49.152;11.004;2024-03-29T05:12:48;7.70;99.90
9730;DHT22;4904;49.152;11.004;2024-03-29T05:15:16;7.60;99.90
9730;DHT22;4904;49.152;11.004;2024-03-29T05:17:43;7.70;99.90
9730;DHT22;4904;49.152;11.004;2024-03-29T05:20:11;7.80;99.90
9730;DHT22;4904;49.152;11.004;2024-03-29T05:22:37;7.80;99.90
9730;DHT22;4904;49.152;11.004;2024-03-29T05:25:04;7.80;99.90
9730;DHT22;4904;49.152;11.004;2024-03-29T05:27:33;7.80;99.90
9730;DHT22;4904;49.152;11.004;2024-03-29T05:30:00;7.90;99.90
9730;DHT22;4904;49.152;11.004;2024-03-29T05:32:28;8.00;99.90
9730;DHT22;4904;49.152;11.004;2024-03-29T05:34:55;8.10;99.90
9730;DHT22;4904;49.152;11.004;2024-03-29T05:37:22;8.10;99.90
9730;DHT22;4904;49.152;11.004;2024-03-29T05:39:50;8.00;99.90
9730;DHT22;4904;49.152;11.004;2024-03-29T05:42:24;7.90;99.90
9730;DHT22;4904;49.152;11.004;2024-03-29T05:44:51;8.10;99.90
9730;DHT22;4904;49.152;11.004;2024-03-29T05:47:18;8.20;99.90
9730;DHT22;4904;49.152;11.004;2024-03-29T05:49:47;8.30;99.90
9730;DHT22;4904;49.152;11.004;2024-03-29T05:52:13;8.40;99.90
9730;DHT22;4904;49.152;11.004;2024-03-29T05:54:40;8.40;99.90
9730;DHT22;4904;49.152;11.004;2024-03-29T05:57:07;8.40;99.90
9730;DHT22;4904;49.152;11.004;2024-03-29T05:59:34;8.50;99.90
9730;DHT22;4904;49.152;11.004;2024-03-29T06:02:02;8.50;99.90
9730;DHT22;4904;49.152;11.004;2024-03-29T06:04:28;8.50;99.90
9730;DHT22;4904;49.152;11.004;2024-03-29T06:06:59;8.50;99.90
9730;DHT22;4904;49.152;11.004;2024-03-29T06:09:26;8.60;99.90
9730;DHT22;4904;49.152;11.004;2024-03-29T06:11:53;8.60;99.90
9730;DHT22;4904;49.152;11.004;2024-03-29T06:14:21;8.60;99.90
9730;DHT22;4904;49.152;11.004;2024-03-29T06:17:05;8.70;99.90
9730;DHT22;4904;49.152;11.004;2024-03-29T06:19:50;8.80;99.90
9730;DHT22;4904;49.152;11.004;2024-03-29T06:22:18;8.90;99.90
9730;DHT22;4904;49.152;11.004;2024-03-29T06:24:45;9.00;99.90
9730;DHT22;4904;49.152;11.004;2024-03-29T06:27:12;9.00;99.90
9730;DHT22;4904;49.152;11.004;2024-03-29T06:29:42;9.10;99.90
9730;DHT22;4904;49.152;11.004;2024-03-29T06:32:09;9.30;99.90
9730;DHT22;4904;49.152;11.004;2024-03-29T06:34:36;9.30;99.90
9730;DHT22;4904;49.152;11.004;2024-03-29T06:37:03;9.30;99.90
9730;DHT22;4904;49.152;11.004;2024-03-29T06:39:32;9.30;99.90
9730;DHT22;4904;49.152;11.004;2024-03-29T06:41:58;9.30;99.90
9730;DHT22;4904;49.152;11.004;2024-03-29T06:44:25;9.30;99.90
9730;DHT22;4904;49.152;11.004;2024-03-29T06:46:52;9.40;99.90
9730;DHT22;4904;49.152;11.004;2024-03-29T06:49:19;9.40;99.90
9730;DHT22;4904;49.152;11.004;2024-03-29T06:51:46;9.30;99.90
9730;DHT22;4904;49.152;11.004;2024-03-29T06:54:13;9.20;99.90
9730;DHT22;4904;49.152;11.004;2024-03-29T06:56:41;9.20;99.90
9730;DHT22;4904;49.152;11.004;2024-03-29T06:59:08;9.20;99.90
9730;DHT22;4904;49.152;11.004;2024-03-29T07:01:35;9.20;99.90
9730;DHT22;4904;49.152;11.004;2024-03-29T07:04:02;9.20;99.90
9730;DHT22;4904;49.152;11.004;2024-03-29T07:06:29;9.20;99.90
9730;DHT22;4904;49.152;11.004;2024-03-29T07:08:56;9.30;99.90
9730;DHT22;4904;49.152;11.004;2024-03-29T07:11:23;9.40;99.90
9730;DHT22;4904;49.152;11.004;2024-03-29T07:13:51;9.40;99.90
9730;DHT22;4904;49.152;11.004;2024-03-29T07:16:18;9.50;99.90
9730;DHT22;4904;49.152;11.004;2024-03-29T07:18:45;9.50;99.90
9730;DHT22;4904;49.152;11.004;2024-03-29T07:21:12;9.70;99.90
9730;DHT22;4904;49.152;11.004;2024-03-29T07:23:38;9.80;99.90
9730;DHT22;4904;49.152;11.004;2024-03-29T07:26:05;9.80;99.90
9730;DHT22;4904;49.152;11.004;2024-03-29T07:28:32;9.90;99.90
9730;DHT22;4904;49.152;11.004;2024-03-29T07:31:06;9.90;99.90
9730;DHT22;4904;49.152;11.004;2024-03-29T07:33:34;9.90;99.90
9730;DHT22;4904;49.152;11.004;2024-03-29T07:36:01;9.90;99.90
9730;DHT22;4904;49.152;11.004;2024-03-29T07:38:29;9.90;99.90
9730;DHT22;4904;49.152;11.004;2024-03-29T07:40:56;10.00;99.90
9730;DHT22;4904;49.152;11.004;2024-03-29T07:43:23;10.00;99.90
9730;DHT22;4904;49.152;11.004;2024-03-29T07:45:50;9.80;99.90
9730;DHT22;4904;49.152;11.004;2024-03-29T07:48:18;9.80;99.90
9730;DHT22;4904;49.152;11.004;2024-03-29T07:50:46;9.90;99.90
9730;DHT22;4904;49.152;11.004;2024-03-29T07:53:13;9.90;99.90
9730;DHT22;4904;49.152;11.004;2024-03-29T07:55:40;9.90;99.90
9730;DHT22;4904;49.152;11.004;2024-03-29T07:58:07;10.00;99.90
9730;DHT22;4904;49.152;11.004;2024-03-29T08:00:39;10.10;99.90
9730;DHT22;4904;49.152;11.004;2024-03-29T08:03:07;10.10;99.90
9730;DHT22;4904;49.152;11.004;2024-03-29T08:05:35;10.30;99.90
9730;DHT22;4904;49.152;11.004;2024-03-29T08:08:02;10.30;99.90
9730;DHT22;4904;49.152;11.004;2024-03-29T08:10:29;10.40;99.90
9730;DHT22;4904;49.152;11.004;2024-03-29T08:12:56;10.40;99.90
9730;DHT22;4904;49.152;11.004;2024-03-29T08:15:23;10.50;99.90
9730;DHT22;4904;49.152;11.004;2024-03-29T08:17:51;10.60;99.90
9730;DHT22;4904;49.152;11.004;2024-03-29T08:20:17;10.60;99.90
9730;DHT22;4904;49.152;11.004;2024-03-29T08:22:46;10.70;99.90
9730;DHT22;4904;49.152;11.004;2024-03-29T08:25:13;10.80;99.90
9730;DHT22;4904;49.152;11.004;2024-03-29T08:27:40;11.00;99.90
9730;DHT22;4904;49.152;11.004;2024-03-29T08:30:08;11.10;99.90
9730;DHT22;4904;49.152;11.004;2024-03-29T08:32:35;11.20;99.90
9730;DHT22;4904;49.152;11.004;2024-03-29T08:35:02;11.20;99.90
9730;DHT22;4904;49.152;11.004;2024-03-29T08:37:29;11.20;99.90
9730;DHT22;4904;49.152;11.004;2024-03-29T08:39:57;11.20;99.90
9730;DHT22;4904;49.152;11.004;2024-03-29T08:42:24;11.20;99.90
9730;DHT22;4904;49.152;11.004;2024-03-29T08:44:51;11.10;99.90
9730;DHT22;4904;49.152;11.004;2024-03-29T08:47:18;11.10;99.90
9730;DHT22;4904;49.152;11.004;2024-03-29T08:49:45;11.00;99.90
9730;DHT22;4904;49.152;11.004;2024-03-29T08:52:12;11.00;99.90
9730;DHT22;4904;49.152;11.004;2024-03-29T08:54:40;11.00;99.90
9730;DHT22;4904;49.152;11.004;2024-03-29T08:57:09;10.90;99.90
9730;DHT22;4904;49.152;11.004;2024-03-29T08:59:36;10.80;99.90
9730;DHT22;4904;49.152;11.004;2024-03-29T09:02:04;10.90;99.90
9730;DHT22;4904;49.152;11.004;2024-03-29T09:04:31;10.80;99.90
9730;DHT22;4904;49.152;11.004;2024-03-29T09:06:59;10.80;99.90
9730;DHT22;4904;49.152;11.004;2024-03-29T09:09:27;10.80;99.90
9730;DHT22;4904;49.152;11.004;2024-03-29T09:11:54;10.60;99.90
9730;DHT22;4904;49.152;11.004;2024-03-29T09:14:22;10.60;99.90
9730;DHT22;4904;49.152;11.004;2024-03-29T09:16:50;10.60;99.90
9730;DHT22;4904;49.152;11.004;2024-03-29T09:19:18;10.60;99.90
9730;DHT22;4904;49.152;11.004;2024-03-29T09:21:45;10.70;99.90
9730;DHT22;4904;49.152;11.004;2024-03-29T09:24:12;10.70;99.90
9730;DHT22;4904;49.152;11.004;2024-03-29T09:26:38;10.70;99.90
9730;DHT22;4904;49.152;11.004;2024-03-29T09:29:06;10.80;99.90
9730;DHT22;4904;49.152;11.004;2024-03-29T09:31:35;10.90;99.90
9730;DHT22;4904;49.152;11.004;2024-03-29T09:34:02;11.00;99.90
9730;DHT22;4904;49.152;11.004;2024-03-29T09:36:29;11.00;99.90
9730;DHT22;4904;49.152;11.004;2024-03-29T09:38:56;11.00;99.90
9730;DHT22;4904;49.152;11.004;2024-03-29T09:41:25;11.10;99.90
9730;DHT22;4904;49.152;11.004;2024-03-29T09:43:53;11.10;99.90
9730;DHT22;4904;49.152;11.004;2024-03-29T09:46:21;11.20;99.90
9730;DHT22;4904;49.152;11.004;2024-03-29T09:48:50;11.30;99.90
9730;DHT22;4904;49.152;11.004;2024-03-29T09:51:19;11.10;99.90
9730;DHT22;4904;49.152;11.004;2024-03-29T09:53:48;11.20;99.90
9730;DHT22;4904;49.152;11.004;2024-03-29T09:56:16;11.20;99.90
9730;DHT22;4904;49.152;11.004;2024-03-29T09:58:43;11.20;99.90
9730;DHT22;4904;49.152;11.004;2024-03-29T10:01:10;11.30;99.90
9730;DHT22;4904;49.152;11.004;2024-03-29T10:03:40;11.30;99.90
9730;DHT22;4904;49.152;11.004;2024-03-29T10:06:09;11.40;99.90
9730;DHT22;4904;49.152;11.004;2024-03-29T10:08:38;11.60;99.90
9730;DHT22;4904;49.152;11.004;2024-03-29T10:11:05;11.70;99.90
9730;DHT22;4904;49.152;11.004;2024-03-29T10:13:32;11.80;99.90
9730;DHT22;4904;49.152;11.004;2024-03-29T10:16:00;11.70;99.90
9730;DHT22;4904;49.152;11.004;2024-03-29T10:18:28;11.80;99.90
9730;DHT22;4904;49.152;11.004;2024-03-29T10:21:00;11.80;99.90
9730;DHT22;4904;49.152;11.004;2024-03-29T10:23:30;11.80;99.90
9730;DHT22;4904;49.152;11.004;2024-03-29T10:25:57;11.90;99.90
9730;DHT22;4904;49.152;11.004;2024-03-29T10:28:27;11.90;99.90
9730;DHT22;4904;49.152;11.004;2024-03-29T10:30:55;11.90;99.90
9730;DHT22;4904;49.152;11.004;2024-03-29T10:33:22;12.00;99.90
9730;DHT22;4904;49.152;11.004;2024-03-29T10:35:49;12.10;99.90
9730;DHT22;4904;49.152;11.004;2024-03-29T10:38:15;12.30;99.90
9730;DHT22;4904;49.152;11.004;2024-03-29T10:40:45;12.10;99.90
9730;DHT22;4904;49.152;11.004;2024-03-29T10:43:12;12.20;99.90
9730;DHT22;4904;49.152;11.004;2024-03-29T10:45:39;12.30;99.90
9730;DHT22;4904;49.152;11.004;2024-03-29T10:48:09;12.50;99.90
9730;DHT22;4904;49.152;11.004;2024-03-29T10:50:36;12.50;99.90
9730;DHT22;4904;49.152;11.004;2024-03-29T10:53:06;12.50;99.90
9730;DHT22;4904;49.152;11.004;2024-03-29T10:55:34;12.60;99.90
9730;DHT22;4904;49.152;11.004;2024-03-29T10:58:04;12.60;99.90
9730;DHT22;4904;49.152;11.004;2024-03-29T11:00:33;12.70;99.90
9730;DHT22;4904;49.152;11.004;2024-03-29T11:03:09;12.80;99.90
9730;DHT22;4904;49.152;11.004;2024-03-29T11:05:43;12.80;99.90
9730;DHT22;4904;49.152;11.004;2024-03-29T11:08:12;12.80;99.90
9730;DHT22;4904;49.152;11.004;2024-03-29T11:10:41;12.90;99.90
9730;DHT22;4904;49.152;11.004;2024-03-29T11:13:19;13.00;99.90
9730;DHT22;4904;49.152;11.004;2024-03-29T11:15:50;13.00;99.90
9730;DHT22;4904;49.152;11.004;2024-03-29T11:18:17;13.00;99.90
9730;DHT22;4904;49.152;11.004;2024-03-29T11:20:45;12.80;99.90
9730;DHT22;4904;49.152;11.004;2024-03-29T11:23:17;13.00;99.90
9730;DHT22;4904;49.152;11.004;2024-03-29T11:25:46;13.20;99.90
9730;DHT22;4904;49.152;11.004;2024-03-29T11:28:22;13.10;99.90
9730;DHT22;4904;49.152;11.004;2024-03-29T11:30:50;13.20;99.90
9730;DHT22;4904;49.152;11.004;2024-03-29T11:33:27;13.00;99.90
9730;DHT22;4904;49.152;11.004;2024-03-29T11:35:54;13.10;99.90
9730;DHT22;4904;49.152;11.004;2024-03-29T11:38:22;13.10;99.90
9730;DHT22;4904;49.152;11.004;2024-03-29T11:41:01;13.20;99.90
9730;DHT22;4904;49.152;11.004;2024-03-29T11:43:30;13.30;99.90
9730;DHT22;4904;49.152;11.004;2024-03-29T11:45:58;13.30;99.90
9730;DHT22;4904;49.152;11.004;2024-03-29T11:48:27;13.40;99.90
9730;DHT22;4904;49.152;11.004;2024-03-29T11:50:54;13.50;99.90
9730;DHT22;4904;49.152;11.004;2024-03-29T11:53:21;13.50;99.90
9730;DHT22;4904;49.152;11.004;2024-03-29T11:55:48;13.60;99.90
9730;DHT22;4904;49.152;11.004;2024-03-29T11:58:19;13.50;99.90
9730;DHT22;4904;49.152;11.004;2024-03-29T12:00:48;13.60;99.90
9730;DHT22;4904;49.152;11.004;2024-03-29T12:03:16;13.70;99.90
9730;DHT22;4904;49.152;11.004;2024-03-29T12:05:43;13.80;99.90
9730;DHT22;4904;49.152;11.004;2024-03-29T12:08:10;13.90;99.90
9730;DHT22;4904;49.152;11.004;2024-03-29T12:10:37;14.00;99.90
9730;DHT22;4904;49.152;11.004;2024-03-29T12:13:05;14.10;99.90
9730;DHT22;4904;49.152;11.004;2024-03-29T12:15:32;14.20;99.90
9730;DHT22;4904;49.152;11.004;2024-03-29T12:18:02;14.30;99.90
9730;DHT22;4904;49.152;11.004;2024-03-29T12:20:31;14.40;99.90
9730;DHT22;4904;49.152;11.004;2024-03-29T12:22:59;14.40;99.90
9730;DHT22;4904;49.152;11.004;2024-03-29T12:25:28;14.50;99.90
9730;DHT22;4904;49.152;11.004;2024-03-29T12:27:55;14.50;99.90
9730;DHT22;4904;49.152;11.004;2024-03-29T12:30:22;14.60;99.90
9730;DHT22;4904;49.152;11.004;2024-03-29T12:33:01;14.60;99.90
9730;DHT22;4904;49.152;11.004;2024-03-29T12:35:28;14.80;99.90
9730;DHT22;4904;49.152;11.004;2024-03-29T12:37:58;14.90;99.90
9730;DHT22;4904;49.152;11.004;2024-03-29T12:40:26;14.90;99.90
9730;DHT22;4904;49.152;11.004;2024-03-29T12:42:55;15.00;99.90
9730;DHT22;4904;49.152;11.004;2024-03-29T12:45:22;15.10;99.90
9730;DHT22;4904;49.152;11.004;2024-03-29T12:47:49;15.10;99.90
9730;DHT22;4904;49.152;11.004;2024-03-29T12:50:24;15.10;99.90
9730;DHT22;4904;49.152;11.004;2024-03-29T12:52:54;15.20;99.90
9730;DHT22;4904;49.152;11.004;2024-03-29T12:55:22;15.20;99.90
9730;DHT22;4904;49.152;11.004;2024-03-29T12:57:49;15.20;99.90
9730;DHT22;4904;49.152;11.004;2024-03-29T13:00:19;15.20;99.90
9730;DHT22;4904;49.152;11.004;2024-03-29T13:02:45;15.20;99.90
9730;DHT22;4904;49.152;11.004;2024-03-29T13:05:12;15.30;99.90
9730;DHT22;4904;49.152;11.004;2024-03-29T13:07:41;15.40;99.90
9730;DHT22;4904;49.152;11.004;2024-03-29T13:10:09;15.60;99.90
9730;DHT22;4904;49.152;11.004;2024-03-29T13:12:39;15.70;99.90
9730;DHT22;4904;49.152;11.004;2024-03-29T13:15:16;15.90;99.90
9730;DHT22;4904;49.152;11.004;2024-03-29T13:17:44;15.90;99.90
9730;DHT22;4904;49.152;11.004;2024-03-29T13:20:11;16.10;99.90
9730;DHT22;4904;49.152;11.004;2024-03-29T13:22:40;16.30;99.90
9730;DHT22;4904;49.152;11.004;2024-03-29T13:25:08;16.40;99.90
9730;DHT22;4904;49.152;11.004;2024-03-29T13:27:36;16.60;99.90
9730;DHT22;4904;49.152;11.004;2024-03-29T13:30:04;16.80;99.90
9730;DHT22;4904;49.152;11.004;2024-03-29T13:32:31;16.90;99.90
9730;DHT22;4904;49.152;11.004;2024-03-29T13:34:58;17.00;99.90
9730;DHT22;4904;49.152;11.004;2024-03-29T13:37:25;17.10;99.90
9730;DHT22;4904;49.152;11.004;2024-03-29T13:39:55;17.20;99.90
9730;DHT22;4904;49.152;11.004;2024-03-29T13:42:22;17.20;99.90
9730;DHT22;4904;49.152;11.004;2024-03-29T13:44:49;17.30;99.90
9730;DHT22;4904;49.152;11.004;2024-03-29T13:47:16;17.30;99.90
9730;DHT22;4904;49.152;11.004;2024-03-29T13:49:43;17.40;99.90
9730;DHT22;4904;49.152;11.004;2024-03-29T13:52:11;17.50;99.90
9730;DHT22;4904;49.152;11.004;2024-03-29T13:54:42;17.70;99.90
9730;DHT22;4904;49.152;11.004;2024-03-29T13:57:11;17.80;99.90
9730;DHT22;4904;49.152;11.004;2024-03-29T13:59:38;17.90;99.90
9730;DHT22;4904;49.152;11.004;2024-03-29T14:02:05;18.10;99.90
9730;DHT22;4904;49.152;11.004;2024-03-29T14:04:32;18.20;99.90
9730;DHT22;4904;49.152;11.004;2024-03-29T14:06:59;18.30;99.90
9730;DHT22;4904;49.152;11.004;2024-03-29T14:09:27;18.30;99.90
9730;DHT22;4904;49.152;11.004;2024-03-29T14:11:54;18.40;99.90
9730;DHT22;4904;49.152;11.004;2024-03-29T14:14:23;18.50;99.90
9730;DHT22;4904;49.152;11.004;2024-03-29T14:16:50;18.60;99.90
9730;DHT22;4904;49.152;11.004;2024-03-29T14:19:17;18.80;99.90
9730;DHT22;4904;49.152;11.004;2024-03-29T14:21:44;18.90;99.90
9730;DHT22;4904;49.152;11.004;2024-03-29T14:24:10;19.00;99.90
9730;DHT22;4904;49.152;11.004;2024-03-29T14:26:37;19.00;99.90
9730;DHT22;4904;49.152;11.004;2024-03-29T14:29:05;19.20;99.90
9730;DHT22;4904;49.152;11.004;2024-03-29T14:31:34;19.20;99.90
9730;DHT22;4904;49.152;11.004;2024-03-29T14:34:01;19.30;99.90
9730;DHT22;4904;49.152;11.004;2024-03-29T14:36:28;19.40;99.90
9730;DHT22;4904;49.152;11.004;2024-03-29T14:38:58;19.60;99.90
9730;DHT22;4904;49.152;11.004;2024-03-29T14:41:26;19.90;99.90
9730;DHT22;4904;49.152;11.004;2024-03-29T14:43:53;20.10;99.90
9730;DHT22;4904;49.152;11.004;2024-03-29T14:46:22;20.30;99.90
9730;DHT22;4904;49.152;11.004;2024-03-29T14:48:50;20.60;99.90
9730;DHT22;4904;49.152;11.004;2024-03-29T14:51:17;20.90;99.90
9730;DHT22;4904;49.152;11.004;2024-03-29T14:53:44;21.30;99.90
9730;DHT22;4904;49.152;11.004;2024-03-29T14:56:15;21.90;99.90
9730;DHT22;4904;49.152;11.004;2024-03-29T14:58:42;22.60;99.90
9730;DHT22;4904;49.152;11.004;2024-03-29T15:01:09;23.20;99.90
9730;DHT22;4904;49.152;11.004;2024-03-29T15:03:36;23.50;99.90
9730;DHT22;4904;49.152;11.004;2024-03-29T15:06:04;23.80;99.90
9730;DHT22;4904;49.152;11.004;2024-03-29T15:08:31;24.30;99.90
9730;DHT22;4904;49.152;11.004;2024-03-29T15:10:58;24.40;99.90
9730;DHT22;4904;49.152;11.004;2024-03-29T15:13:25;24.00;99.90
9730;DHT22;4904;49.152;11.004;2024-03-29T15:15:53;23.90;99.90
9730;DHT22;4904;49.152;11.004;2024-03-29T15:18:20;23.90;99.90
9730;DHT22;4904;49.152;11.004;2024-03-29T15:20:54;23.80;99.90
9730;DHT22;4904;49.152;11.004;2024-03-29T15:23:22;23.90;99.90
9730;DHT22;4904;49.152;11.004;2024-03-29T15:25:51;23.50;99.90
9730;DHT22;4904;49.152;11.004;2024-03-29T15:28:18;22.70;99.90
9730;DHT22;4904;49.152;11.004;2024-03-29T15:31:08;22.20;99.90
9730;DHT22;4904;49.152;11.004;2024-03-29T15:33:36;21.80;99.90
9730;DHT22;4904;49.152;11.004;2024-03-29T15:36:03;21.60;99.90
9730;DHT22;4904;49.152;11.004;2024-03-29T15:38:31;21.50;99.90
9730;DHT22;4904;49.152;11.004;2024-03-29T15:40:59;21.70;99.90
9730;DHT22;4904;49.152;11.004;2024-03-29T15:43:27;21.70;99.90
9730;DHT22;4904;49.152;11.004;2024-03-29T15:45:54;21.80;99.90
9730;DHT22;4904;49.152;11.004;2024-03-29T15:48:21;21.80;99.90
9730;DHT22;4904;49.152;11.004;2024-03-29T15:50:48;21.60;99.90
9730;DHT22;4904;49.152;11.004;2024-03-29T15:53:15;21.30;99.90
9730;DHT22;4904;49.152;11.004;2024-03-29T15:55:43;20.90;99.90
9730;DHT22;4904;49.152;11.004;2024-03-29T15:58:11;20.70;99.90